sensor_id;sensor_type;location;lat;lon;timestamp;P1;durP1;ratioP1;P2;durP2;ratioP2
55224;SDS011;41091;49.400;8.684;2022-10-17T00:01:12;12.57;;;1.40;;
55224;SDS011;41091;49.400;8.684;2022-10-17T00:03:39;1.40;;;1.30;;
55224;SDS011;41091;49.400;8.684;2022-10-17T00:06:14;6.93;;;1.73;;
55224;SDS011;41091;49.400;8.684;2022-10-17T00:08:41;13.32;;;1.30;;
55224;SDS011;41091;49.400;8.684;2022-10-17T00:11:08;10.80;;;1.30;;
55224;SDS011;41091;49.400;8.684;2022-10-17T00:13:40;5.32;;;2.67;;
55224;SDS011;41091;49.400;8.684;2022-10-17T00:16:06;9.95;;;1.70;;
55224;SDS011;41091;49.400;8.684;2022-10-17T00:18:34;6.00;;;1.10;;
55224;SDS011;41091;49.400;8.684;2022-10-17T00:20:59;5.28;;;0.93;;
55224;SDS011;41091;49.400;8.684;2022-10-17T00:23:27;5.70;;;1.38;;
55224;SDS011;41091;49.400;8.684;2022-10-17T00:25:57;4.20;;;1.40;;
55224;SDS011;41091;49.400;8.684;2022-10-17T00:28:24;4.20;;;1.40;;
55224;SDS011;41091;49.400;8.684;2022-10-17T00:30:59;9.70;;;1.58;;
55224;SDS011;41091;49.400;8.684;2022-10-17T00:33:26;4.13;;;1.00;;
55224;SDS011;41091;49.400;8.684;2022-10-17T00:36:11;4.13;;;1.35;;
55224;SDS011;41091;49.400;8.684;2022-10-17T00:38:48;1.10;;;1.10;;
55224;SDS011;41091;49.400;8.684;2022-10-17T00:41:16;1.38;;;1.25;;
55224;SDS011;41091;49.400;8.684;2022-10-17T00:46:29;9.98;;;1.55;;
55224;SDS011;41091;49.400;8.684;2022-10-17T00:49:00;2.15;;;1.10;;
55224;SDS011;41091;49.400;8.684;2022-10-17T00:51:36;0.80;;;0.80;;
55224;SDS011;41091;49.400;8.684;2022-10-17T00:54:04;3.15;;;1.05;;
55224;SDS011;41091;49.400;8.684;2022-10-17T00:56:32;6.75;;;1.60;;
55224;SDS011;41091;49.400;8.684;2022-10-17T00:58:58;5.65;;;1.20;;
55224;SDS011;41091;49.400;8.684;2022-10-17T01:01:23;7.72;;;1.08;;
55224;SDS011;41091;49.400;8.684;2022-10-17T01:03:49;11.80;;;1.42;;
55224;SDS011;41091;49.400;8.684;2022-10-17T01:06:14;7.55;;;1.30;;
55224;SDS011;41091;49.400;8.684;2022-10-17T01:08:39;1.67;;;1.42;;
55224;SDS011;41091;49.400;8.684;2022-10-17T01:16:44;3.83;;;1.20;;
55224;SDS011;41091;49.400;8.684;2022-10-17T01:22:20;10.43;;;1.30;;
55224;SDS011;41091;49.400;8.684;2022-10-17T01:35:56;6.18;;;1.58;;
55224;SDS011;41091;49.400;8.684;2022-10-17T01:38:59;1.48;;;1.38;;
55224;SDS011;41091;49.400;8.684;2022-10-17T01:41:26;2.30;;;0.90;;
55224;SDS011;41091;49.400;8.684;2022-10-17T01:44:03;4.70;;;1.20;;
55224;SDS011;41091;49.400;8.684;2022-10-17T01:46:35;4.00;;;1.00;;
55224;SDS011;41091;49.400;8.684;2022-10-17T01:49:03;3.90;;;1.05;;
55224;SDS011;41091;49.400;8.684;2022-10-17T01:51:53;10.10;;;1.42;;
55224;SDS011;41091;49.400;8.684;2022-10-17T01:57:31;8.25;;;1.40;;
55224;SDS011;41091;49.400;8.684;2022-10-17T02:02:32;1.00;;;0.90;;
55224;SDS011;41091;49.400;8.684;2022-10-17T02:04:58;1.10;;;1.00;;
55224;SDS011;41091;49.400;8.684;2022-10-17T02:07:25;7.35;;;1.40;;
55224;SDS011;41091;49.400;8.684;2022-10-17T02:09:51;4.43;;;1.35;;
55224;SDS011;41091;49.400;8.684;2022-10-17T02:22:54;1.42;;;1.35;;
55224;SDS011;41091;49.400;8.684;2022-10-17T02:25:33;6.63;;;1.27;;
55224;SDS011;41091;49.400;8.684;2022-10-17T02:30:57;2.13;;;1.38;;
55224;SDS011;41091;49.400;8.684;2022-10-17T02:33:29;6.75;;;1.10;;
55224;SDS011;41091;49.400;8.684;2022-10-17T02:35:58;4.93;;;1.33;;
55224;SDS011;41091;49.400;8.684;2022-10-17T02:38:28;1.00;;;0.75;;
55224;SDS011;41091;49.400;8.684;2022-10-17T02:40:54;4.32;;;1.30;;
55224;SDS011;41091;49.400;8.684;2022-10-17T02:43:20;1.67;;;0.95;;
55224;SDS011;41091;49.400;8.684;2022-10-17T02:45:45;1.33;;;1.23;;
55224;SDS011;41091;49.400;8.684;2022-10-17T02:48:14;12.98;;;1.92;;
55224;SDS011;41091;49.400;8.684;2022-10-17T02:56:23;6.07;;;1.45;;
55224;SDS011;41091;49.400;8.684;2022-10-17T02:58:52;2.05;;;1.10;;
55224;SDS011;41091;49.400;8.684;2022-10-17T03:01:20;1.10;;;1.00;;
55224;SDS011;41091;49.400;8.684;2022-10-17T03:03:45;14.57;;;4.45;;
55224;SDS011;41091;49.400;8.684;2022-10-17T03:06:13;10.90;;;1.02;;
55224;SDS011;41091;49.400;8.684;2022-10-17T03:08:38;4.95;;;1.13;;
55224;SDS011;41091;49.400;8.684;2022-10-17T03:11:06;3.55;;;1.30;;
55224;SDS011;41091;49.400;8.684;2022-10-17T03:13:36;4.10;;;1.00;;
55224;SDS011;41091;49.400;8.684;2022-10-17T03:16:01;7.47;;;1.42;;
55224;SDS011;41091;49.400;8.684;2022-10-17T03:18:30;3.65;;;1.15;;
55224;SDS011;41091;49.400;8.684;2022-10-17T03:20:55;0.95;;;0.95;;
55224;SDS011;41091;49.400;8.684;2022-10-17T03:23:23;2.15;;;0.93;;
55224;SDS011;41091;49.400;8.684;2022-10-17T03:25:51;11.40;;;1.27;;
55224;SDS011;41091;49.400;8.684;2022-10-17T03:28:16;7.75;;;1.52;;
55224;SDS011;41091;49.400;8.684;2022-10-17T03:30:43;6.57;;;0.93;;
55224;SDS011;41091;49.400;8.684;2022-10-17T03:33:11;7.53;;;1.52;;
55224;SDS011;41091;49.400;8.684;2022-10-17T03:35:37;5.68;;;1.10;;
55224;SDS011;41091;49.400;8.684;2022-10-17T03:38:06;3.63;;;1.65;;
55224;SDS011;41091;49.400;8.684;2022-10-17T03:40:36;13.35;;;1.35;;
55224;SDS011;41091;49.400;8.684;2022-10-17T03:43:04;10.45;;;1.63;;
55224;SDS011;41091;49.400;8.684;2022-10-17T03:45:31;3.60;;;1.05;;
55224;SDS011;41091;49.400;8.684;2022-10-17T03:47:57;3.40;;;0.98;;
55224;SDS011;41091;49.400;8.684;2022-10-17T03:50:25;4.80;;;2.13;;
55224;SDS011;41091;49.400;8.684;2022-10-17T03:52:50;7.90;;;1.23;;
55224;SDS011;41091;49.400;8.684;2022-10-17T03:55:16;6.63;;;1.10;;
55224;SDS011;41091;49.400;8.684;2022-10-17T03:57:42;4.38;;;1.33;;
55224;SDS011;41091;49.400;8.684;2022-10-17T04:00:07;5.65;;;1.20;;
55224;SDS011;41091;49.400;8.684;2022-10-17T04:02:33;6.88;;;1.23;;
55224;SDS011;41091;49.400;8.684;2022-10-17T04:04:59;15.30;;;1.58;;
55224;SDS011;41091;49.400;8.684;2022-10-17T04:07:25;9.15;;;1.77;;
55224;SDS011;41091;49.400;8.684;2022-10-17T04:09:50;5.72;;;1.42;;
55224;SDS011;41091;49.400;8.684;2022-10-17T04:12:15;5.28;;;1.05;;
55224;SDS011;41091;49.400;8.684;2022-10-17T04:14:41;6.90;;;1.38;;
55224;SDS011;41091;49.400;8.684;2022-10-17T04:17:06;5.03;;;2.08;;
55224;SDS011;41091;49.400;8.684;2022-10-17T04:19:31;5.63;;;1.27;;
55224;SDS011;41091;49.400;8.684;2022-10-17T04:21:57;6.95;;;1.50;;
55224;SDS011;41091;49.400;8.684;2022-10-17T04:24:22;6.07;;;1.27;;
55224;SDS011;41091;49.400;8.684;2022-10-17T04:26:50;2.15;;;1.15;;
55224;SDS011;41091;49.400;8.684;2022-10-17T04:29:18;11.07;;;1.42;;
55224;SDS011;41091;49.400;8.684;2022-10-17T04:31:44;3.85;;;1.00;;
55224;SDS011;41091;49.400;8.684;2022-10-17T04:34:09;11.57;;;1.70;;
55224;SDS011;41091;49.400;8.684;2022-10-17T04:36:34;5.28;;;1.05;;
55224;SDS011;41091;49.400;8.684;2022-10-17T04:39:00;2.42;;;1.30;;
55224;SDS011;41091;49.400;8.684;2022-10-17T04:41:27;4.75;;;2.20;;
55224;SDS011;41091;49.400;8.684;2022-10-17T04:43:52;5.93;;;1.05;;
55224;SDS011;41091;49.400;8.684;2022-10-17T04:46:18;10.30;;;1.77;;
55224;SDS011;41091;49.400;8.684;2022-10-17T04:48:45;5.03;;;1.05;;
55224;SDS011;41091;49.400;8.684;2022-10-17T04:51:15;1.50;;;1.08;;
55224;SDS011;41091;49.400;8.684;2022-10-17T04:53:42;1.73;;;1.35;;
55224;SDS011;41091;49.400;8.684;2022-10-17T04:56:09;3.30;;;1.23;;
55224;SDS011;41091;49.400;8.684;2022-10-17T04:58:36;8.40;;;2.55;;
55224;SDS011;41091;49.400;8.684;2022-10-17T05:01:06;7.47;;;1.60;;
55224;SDS011;41091;49.400;8.684;2022-10-17T05:03:34;2.58;;;1.35;;
55224;SDS011;41091;49.400;8.684;2022-10-17T05:06:06;4.05;;;1.42;;
55224;SDS011;41091;49.400;8.684;2022-10-17T05:08:34;4.03;;;2.15;;
55224;SDS011;41091;49.400;8.684;2022-10-17T05:11:00;7.72;;;1.65;;
55224;SDS011;41091;49.400;8.684;2022-10-17T05:13:25;5.53;;;1.48;;
55224;SDS011;41091;49.400;8.684;2022-10-17T05:15:57;3.30;;;1.65;;
55224;SDS011;41091;49.400;8.684;2022-10-17T05:18:26;4.57;;;2.35;;
55224;SDS011;41091;49.400;8.684;2022-10-17T05:20:52;7.07;;;2.35;;
55224;SDS011;41091;49.400;8.684;2022-10-17T05:23:17;3.83;;;1.83;;
55224;SDS011;41091;49.400;8.684;2022-10-17T05:25:44;5.88;;;1.80;;
55224;SDS011;41091;49.400;8.684;2022-10-17T05:28:10;1.77;;;1.65;;
55224;SDS011;41091;49.400;8.684;2022-10-17T05:30:38;6.88;;;1.35;;
55224;SDS011;41091;49.400;8.684;2022-10-17T05:33:03;2.38;;;1.35;;
55224;SDS011;41091;49.400;8.684;2022-10-17T05:35:28;12.82;;;1.52;;
55224;SDS011;41091;49.400;8.684;2022-10-17T05:37:54;5.70;;;1.80;;
55224;SDS011;41091;49.400;8.684;2022-10-17T05:40:19;6.47;;;1.40;;
55224;SDS011;41091;49.400;8.684;2022-10-17T05:42:47;4.57;;;1.30;;
55224;SDS011;41091;49.400;8.684;2022-10-17T05:45:13;7.00;;;1.35;;
55224;SDS011;41091;49.400;8.684;2022-10-17T05:47:39;9.68;;;1.48;;
55224;SDS011;41091;49.400;8.684;2022-10-17T05:50:04;4.82;;;1.35;;
55224;SDS011;41091;49.400;8.684;2022-10-17T05:52:33;4.63;;;1.40;;
55224;SDS011;41091;49.400;8.684;2022-10-17T05:54:59;8.77;;;1.33;;
55224;SDS011;41091;49.400;8.684;2022-10-17T05:57:25;8.63;;;1.80;;
55224;SDS011;41091;49.400;8.684;2022-10-17T05:59:50;9.10;;;1.80;;
55224;SDS011;41091;49.400;8.684;2022-10-17T06:02:16;11.40;;;1.65;;
55224;SDS011;41091;49.400;8.684;2022-10-17T06:04:41;4.18;;;1.50;;
55224;SDS011;41091;49.400;8.684;2022-10-17T06:07:10;2.83;;;1.70;;
55224;SDS011;41091;49.400;8.684;2022-10-17T06:09:36;1.85;;;1.60;;
55224;SDS011;41091;49.400;8.684;2022-10-17T06:12:04;6.53;;;1.58;;
55224;SDS011;41091;49.400;8.684;2022-10-17T06:14:34;6.55;;;1.60;;
55224;SDS011;41091;49.400;8.684;2022-10-17T06:19:30;1.73;;;1.23;;
55224;SDS011;41091;49.400;8.684;2022-10-17T06:24:25;9.57;;;1.80;;
55224;SDS011;41091;49.400;8.684;2022-10-17T06:29:18;1.50;;;1.40;;
55224;SDS011;41091;49.400;8.684;2022-10-17T06:31:43;5.07;;;1.50;;
55224;SDS011;41091;49.400;8.684;2022-10-17T06:34:09;8.40;;;1.52;;
55224;SDS011;41091;49.400;8.684;2022-10-17T06:36:36;4.07;;;1.42;;
55224;SDS011;41091;49.400;8.684;2022-10-17T06:39:02;8.35;;;1.60;;
55224;SDS011;41091;49.400;8.684;2022-10-17T06:41:27;1.48;;;1.38;;
55224;SDS011;41091;49.400;8.684;2022-10-17T06:43:52;4.18;;;1.63;;
55224;SDS011;41091;49.400;8.684;2022-10-17T06:46:18;2.10;;;1.35;;
55224;SDS011;41091;49.400;8.684;2022-10-17T06:48:43;5.25;;;1.45;;
55224;SDS011;41091;49.400;8.684;2022-10-17T06:51:09;1.75;;;1.65;;
55224;SDS011;41091;49.400;8.684;2022-10-17T06:53:35;2.55;;;1.42;;
55224;SDS011;41091;49.400;8.684;2022-10-17T06:56:01;1.40;;;1.40;;
55224;SDS011;41091;49.400;8.684;2022-10-17T06:58:37;6.15;;;1.90;;
55224;SDS011;41091;49.400;8.684;2022-10-17T07:01:09;2.15;;;1.02;;
55224;SDS011;41091;49.400;8.684;2022-10-17T07:03:36;8.15;;;1.98;;
55224;SDS011;41091;49.400;8.684;2022-10-17T07:06:01;10.73;;;2.70;;
55224;SDS011;41091;49.400;8.684;2022-10-17T07:08:29;10.15;;;2.83;;
55224;SDS011;41091;49.400;8.684;2022-10-17T07:10:57;19.08;;;2.75;;
55224;SDS011;41091;49.400;8.684;2022-10-17T07:13:25;20.02;;;4.88;;
55224;SDS011;41091;49.400;8.684;2022-10-17T07:15:50;11.10;;;3.08;;
55224;SDS011;41091;49.400;8.684;2022-10-17T07:18:15;9.35;;;3.17;;
55224;SDS011;41091;49.400;8.684;2022-10-17T07:20:41;9.73;;;3.05;;
55224;SDS011;41091;49.400;8.684;2022-10-17T07:23:06;4.63;;;2.78;;
55224;SDS011;41091;49.400;8.684;2022-10-17T07:25:32;6.70;;;3.00;;
55224;SDS011;41091;49.400;8.684;2022-10-17T07:27:57;12.35;;;3.42;;
55224;SDS011;41091;49.400;8.684;2022-10-17T07:30:23;11.82;;;3.33;;
55224;SDS011;41091;49.400;8.684;2022-10-17T07:32:54;5.68;;;3.78;;
55224;SDS011;41091;49.400;8.684;2022-10-17T07:35:21;19.17;;;4.95;;
55224;SDS011;41091;49.400;8.684;2022-10-17T07:37:47;6.82;;;4.20;;
55224;SDS011;41091;49.400;8.684;2022-10-17T07:40:12;7.53;;;3.60;;
55224;SDS011;41091;49.400;8.684;2022-10-17T07:42:37;12.40;;;3.58;;
55224;SDS011;41091;49.400;8.684;2022-10-17T07:45:03;8.95;;;3.10;;
55224;SDS011;41091;49.400;8.684;2022-10-17T07:47:29;9.20;;;2.90;;
55224;SDS011;41091;49.400;8.684;2022-10-17T07:49:55;11.00;;;2.83;;
55224;SDS011;41091;49.400;8.684;2022-10-17T07:52:21;9.63;;;3.15;;
55224;SDS011;41091;49.400;8.684;2022-10-17T07:54:49;14.35;;;2.75;;
55224;SDS011;41091;49.400;8.684;2022-10-17T07:57:14;2.25;;;2.10;;
55224;SDS011;41091;49.400;8.684;2022-10-17T07:59:39;4.25;;;2.63;;
55224;SDS011;41091;49.400;8.684;2022-10-17T08:02:05;3.63;;;2.47;;
55224;SDS011;41091;49.400;8.684;2022-10-17T08:04:32;8.02;;;2.97;;
55224;SDS011;41091;49.400;8.684;2022-10-17T08:06:58;8.65;;;2.20;;
55224;SDS011;41091;49.400;8.684;2022-10-17T08:09:24;5.07;;;2.15;;
55224;SDS011;41091;49.400;8.684;2022-10-17T08:11:49;9.07;;;1.95;;
55224;SDS011;41091;49.400;8.684;2022-10-17T08:14:18;5.72;;;1.83;;
55224;SDS011;41091;49.400;8.684;2022-10-17T08:16:43;8.98;;;1.88;;
55224;SDS011;41091;49.400;8.684;2022-10-17T08:19:11;2.40;;;1.92;;
55224;SDS011;41091;49.400;8.684;2022-10-17T08:21:38;9.15;;;2.47;;
55224;SDS011;41091;49.400;8.684;2022-10-17T08:24:08;3.03;;;2.20;;
55224;SDS011;41091;49.400;8.684;2022-10-17T08:26:36;6.05;;;2.05;;
55224;SDS011;41091;49.400;8.684;2022-10-17T08:31:29;4.13;;;1.80;;
55224;SDS011;41091;49.400;8.684;2022-10-17T08:33:54;8.27;;;2.30;;
55224;SDS011;41091;49.400;8.684;2022-10-17T08:36:22;9.68;;;2.15;;
55224;SDS011;41091;49.400;8.684;2022-10-17T08:38:47;6.43;;;1.92;;
55224;SDS011;41091;49.400;8.684;2022-10-17T08:41:33;3.65;;;1.50;;
55224;SDS011;41091;49.400;8.684;2022-10-17T08:44:07;4.10;;;1.73;;
55224;SDS011;41091;49.400;8.684;2022-10-17T08:46:36;9.93;;;2.13;;
55224;SDS011;41091;49.400;8.684;2022-10-17T08:49:10;12.65;;;3.38;;
55224;SDS011;41091;49.400;8.684;2022-10-17T08:51:41;14.23;;;1.90;;
55224;SDS011;41091;49.400;8.684;2022-10-17T08:54:15;1.70;;;1.60;;
55224;SDS011;41091;49.400;8.684;2022-10-17T08:56:45;3.85;;;1.20;;
55224;SDS011;41091;49.400;8.684;2022-10-17T08:59:16;1.90;;;1.80;;
55224;SDS011;41091;49.400;8.684;2022-10-17T09:01:45;1.70;;;1.60;;
55224;SDS011;41091;49.400;8.684;2022-10-17T09:07:04;2.08;;;1.65;;
55224;SDS011;41091;49.400;8.684;2022-10-17T09:17:32;3.28;;;1.30;;
55224;SDS011;41091;49.400;8.684;2022-10-17T09:20:15;4.28;;;1.42;;
55224;SDS011;41091;49.400;8.684;2022-10-17T09:25:23;5.95;;;1.40;;
55224;SDS011;41091;49.400;8.684;2022-10-17T09:28:03;9.60;;;1.30;;
55224;SDS011;41091;49.400;8.684;2022-10-17T09:33:10;1.60;;;1.38;;
55224;SDS011;41091;49.400;8.684;2022-10-17T09:35:36;6.28;;;1.45;;
55224;SDS011;41091;49.400;8.684;2022-10-17T09:38:02;13.98;;;1.50;;
55224;SDS011;41091;49.400;8.684;2022-10-17T09:40:30;8.98;;;1.30;;
55224;SDS011;41091;49.400;8.684;2022-10-17T09:42:57;8.57;;;1.25;;
55224;SDS011;41091;49.400;8.684;2022-10-17T09:45:24;16.25;;;1.55;;
55224;SDS011;41091;49.400;8.684;2022-10-17T09:48:11;10.18;;;1.30;;
55224;SDS011;41091;49.400;8.684;2022-10-17T09:50:48;5.30;;;1.00;;
55224;SDS011;41091;49.400;8.684;2022-10-17T09:53:17;2.17;;;1.17;;
55224;SDS011;41091;49.400;8.684;2022-10-17T09:55:48;4.65;;;1.02;;
55224;SDS011;41091;49.400;8.684;2022-10-17T09:58:16;3.35;;;0.90;;
55224;SDS011;41091;49.400;8.684;2022-10-17T10:00:46;5.28;;;1.30;;
55224;SDS011;41091;49.400;8.684;2022-10-17T10:05:40;15.57;;;1.92;;
55224;SDS011;41091;49.400;8.684;2022-10-17T10:08:13;2.92;;;1.35;;
55224;SDS011;41091;49.400;8.684;2022-10-17T10:10:40;2.78;;;0.80;;
55224;SDS011;41091;49.400;8.684;2022-10-17T10:15:37;3.17;;;1.23;;
55224;SDS011;41091;49.400;8.684;2022-10-17T10:23:31;1.20;;;1.05;;
55224;SDS011;41091;49.400;8.684;2022-10-17T10:28:29;7.68;;;1.55;;
55224;SDS011;41091;49.400;8.684;2022-10-17T10:30:57;8.73;;;1.08;;
55224;SDS011;41091;49.400;8.684;2022-10-17T10:33:25;10.82;;;1.10;;
55224;SDS011;41091;49.400;8.684;2022-10-17T10:35:54;2.67;;;1.20;;
55224;SDS011;41091;49.400;8.684;2022-10-17T10:38:21;10.18;;;1.75;;
55224;SDS011;41091;49.400;8.684;2022-10-17T10:40:53;9.20;;;1.40;;
55224;SDS011;41091;49.400;8.684;2022-10-17T10:45:51;3.95;;;1.58;;
55224;SDS011;41091;49.400;8.684;2022-10-17T10:48:21;5.00;;;1.20;;
55224;SDS011;41091;49.400;8.684;2022-10-17T10:50:49;2.60;;;1.13;;
55224;SDS011;41091;49.400;8.684;2022-10-17T10:53:33;1.08;;;0.90;;
55224;SDS011;41091;49.400;8.684;2022-10-17T10:56:15;9.32;;;1.50;;
55224;SDS011;41091;49.400;8.684;2022-10-17T11:06:24;3.87;;;1.10;;
55224;SDS011;41091;49.400;8.684;2022-10-17T11:11:51;5.22;;;1.05;;
55224;SDS011;41091;49.400;8.684;2022-10-17T11:17:15;4.03;;;1.48;;
55224;SDS011;41091;49.400;8.684;2022-10-17T11:22:22;3.85;;;1.58;;
55224;SDS011;41091;49.400;8.684;2022-10-17T11:24:52;4.30;;;1.30;;
55224;SDS011;41091;49.400;8.684;2022-10-17T11:27:21;7.63;;;1.23;;
55224;SDS011;41091;49.400;8.684;2022-10-17T11:29:47;2.67;;;1.00;;
55224;SDS011;41091;49.400;8.684;2022-10-17T11:34:49;4.53;;;1.48;;
55224;SDS011;41091;49.400;8.684;2022-10-17T11:37:19;2.75;;;1.23;;
55224;SDS011;41091;49.400;8.684;2022-10-17T11:39:49;4.88;;;1.30;;
55224;SDS011;41091;49.400;8.684;2022-10-17T11:42:19;6.03;;;1.02;;
55224;SDS011;41091;49.400;8.684;2022-10-17T11:44:49;6.03;;;1.20;;
55224;SDS011;41091;49.400;8.684;2022-10-17T11:47:36;4.68;;;1.45;;
55224;SDS011;41091;49.400;8.684;2022-10-17T11:50:21;2.85;;;1.58;;
55224;SDS011;41091;49.400;8.684;2022-10-17T11:55:22;7.95;;;1.30;;
55224;SDS011;41091;49.400;8.684;2022-10-17T12:00:29;5.18;;;1.10;;
55224;SDS011;41091;49.400;8.684;2022-10-17T12:05:48;1.98;;;1.10;;
55224;SDS011;41091;49.400;8.684;2022-10-17T12:08:38;7.85;;;1.88;;
55224;SDS011;41091;49.400;8.684;2022-10-17T12:13:53;3.83;;;1.55;;
55224;SDS011;41091;49.400;8.684;2022-10-17T12:18:46;1.20;;;0.93;;
55224;SDS011;41091;49.400;8.684;2022-10-17T12:21:12;8.18;;;1.25;;
55224;SDS011;41091;49.400;8.684;2022-10-17T12:23:40;5.80;;;1.10;;
55224;SDS011;41091;49.400;8.684;2022-10-17T12:26:19;2.58;;;1.48;;
55224;SDS011;41091;49.400;8.684;2022-10-17T12:28:52;5.88;;;1.45;;
55224;SDS011;41091;49.400;8.684;2022-10-17T12:33:55;3.95;;;1.20;;
55224;SDS011;41091;49.400;8.684;2022-10-17T12:38:47;5.18;;;1.02;;
55224;SDS011;41091;49.400;8.684;2022-10-17T12:41:16;7.55;;;1.10;;
55224;SDS011;41091;49.400;8.684;2022-10-17T12:43:52;5.30;;;1.10;;
55224;SDS011;41091;49.400;8.684;2022-10-17T12:54:39;3.40;;;1.95;;
55224;SDS011;41091;49.400;8.684;2022-10-17T13:00:04;3.83;;;1.60;;
55224;SDS011;41091;49.400;8.684;2022-10-17T13:02:39;8.68;;;1.20;;
55224;SDS011;41091;49.400;8.684;2022-10-17T13:05:07;12.40;;;1.25;;
55224;SDS011;41091;49.400;8.684;2022-10-17T13:07:41;1.95;;;1.27;;
55224;SDS011;41091;49.400;8.684;2022-10-17T13:10:25;6.70;;;1.48;;
55224;SDS011;41091;49.400;8.684;2022-10-17T13:12:53;4.50;;;1.10;;
55224;SDS011;41091;49.400;8.684;2022-10-17T13:15:46;10.60;;;1.20;;
55224;SDS011;41091;49.400;8.684;2022-10-17T13:18:17;6.95;;;1.30;;
55224;SDS011;41091;49.400;8.684;2022-10-17T13:20:57;3.67;;;1.48;;
55224;SDS011;41091;49.400;8.684;2022-10-17T13:23:40;4.93;;;1.65;;
55224;SDS011;41091;49.400;8.684;2022-10-17T13:26:10;13.13;;;1.48;;
55224;SDS011;41091;49.400;8.684;2022-10-17T13:28:36;5.40;;;1.25;;
55224;SDS011;41091;49.400;8.684;2022-10-17T13:31:01;5.28;;;1.42;;
55224;SDS011;41091;49.400;8.684;2022-10-17T13:33:35;4.68;;;1.17;;
55224;SDS011;41091;49.400;8.684;2022-10-17T13:36:05;3.85;;;1.10;;
55224;SDS011;41091;49.400;8.684;2022-10-17T13:38:35;4.43;;;1.38;;
55224;SDS011;41091;49.400;8.684;2022-10-17T13:41:01;6.35;;;1.70;;
55224;SDS011;41091;49.400;8.684;2022-10-17T13:43:29;3.70;;;1.40;;
55224;SDS011;41091;49.400;8.684;2022-10-17T13:45:59;6.50;;;1.83;;
55224;SDS011;41091;49.400;8.684;2022-10-17T13:48:29;4.45;;;1.63;;
55224;SDS011;41091;49.400;8.684;2022-10-17T13:50:59;6.88;;;1.42;;
55224;SDS011;41091;49.400;8.684;2022-10-17T13:53:38;6.55;;;1.33;;
55224;SDS011;41091;49.400;8.684;2022-10-17T13:56:26;12.98;;;1.08;;
55224;SDS011;41091;49.400;8.684;2022-10-17T13:58:55;1.98;;;1.30;;
55224;SDS011;41091;49.400;8.684;2022-10-17T14:01:28;4.45;;;1.38;;
55224;SDS011;41091;49.400;8.684;2022-10-17T14:03:54;4.63;;;1.65;;
55224;SDS011;41091;49.400;8.684;2022-10-17T14:06:27;5.28;;;1.58;;
55224;SDS011;41091;49.400;8.684;2022-10-17T14:11:34;12.48;;;1.77;;
55224;SDS011;41091;49.400;8.684;2022-10-17T14:14:02;1.70;;;1.40;;
55224;SDS011;41091;49.400;8.684;2022-10-17T14:16:43;2.17;;;1.65;;
55224;SDS011;41091;49.400;8.684;2022-10-17T14:22:13;1.77;;;0.95;;
55224;SDS011;41091;49.400;8.684;2022-10-17T14:24:41;9.45;;;2.40;;
55224;SDS011;41091;49.400;8.684;2022-10-17T14:30:29;6.82;;;1.52;;
55224;SDS011;41091;49.400;8.684;2022-10-17T14:32:56;3.28;;;1.52;;
55224;SDS011;41091;49.400;8.684;2022-10-17T14:35:22;6.82;;;1.38;;
55224;SDS011;41091;49.400;8.684;2022-10-17T14:37:48;3.75;;;1.58;;
55224;SDS011;41091;49.400;8.684;2022-10-17T14:40:22;2.53;;;1.45;;
55224;SDS011;41091;49.400;8.684;2022-10-17T14:42:48;3.38;;;1.75;;
55224;SDS011;41091;49.400;8.684;2022-10-17T14:45:24;4.15;;;1.80;;
55224;SDS011;41091;49.400;8.684;2022-10-17T14:47:51;6.88;;;1.50;;
55224;SDS011;41091;49.400;8.684;2022-10-17T14:50:25;2.45;;;1.50;;
55224;SDS011;41091;49.400;8.684;2022-10-17T14:53:05;4.10;;;1.80;;
55224;SDS011;41091;49.400;8.684;2022-10-17T14:56:01;4.00;;;1.42;;
55224;SDS011;41091;49.400;8.684;2022-10-17T14:58:30;6.65;;;2.80;;
55224;SDS011;41091;49.400;8.684;2022-10-17T15:00:59;3.00;;;1.73;;
55224;SDS011;41091;49.400;8.684;2022-10-17T15:03:26;5.38;;;1.45;;
55224;SDS011;41091;49.400;8.684;2022-10-17T15:05:52;8.32;;;1.83;;
55224;SDS011;41091;49.400;8.684;2022-10-17T15:08:20;3.88;;;1.50;;
55224;SDS011;41091;49.400;8.684;2022-10-17T15:10:48;6.15;;;1.58;;
55224;SDS011;41091;49.400;8.684;2022-10-17T15:13:22;11.17;;;1.60;;
55224;SDS011;41091;49.400;8.684;2022-10-17T15:15:50;4.03;;;1.70;;
55224;SDS011;41091;49.400;8.684;2022-10-17T15:18:16;3.35;;;1.40;;
55224;SDS011;41091;49.400;8.684;2022-10-17T15:20:41;10.48;;;1.67;;
55224;SDS011;41091;49.400;8.684;2022-10-17T15:23:09;2.03;;;1.27;;
55224;SDS011;41091;49.400;8.684;2022-10-17T15:25:37;6.90;;;1.98;;
55224;SDS011;41091;49.400;8.684;2022-10-17T15:28:05;10.80;;;1.95;;
55224;SDS011;41091;49.400;8.684;2022-10-17T15:30:31;2.30;;;2.10;;
55224;SDS011;41091;49.400;8.684;2022-10-17T15:32:59;5.53;;;1.80;;
55224;SDS011;41091;49.400;8.684;2022-10-17T15:35:25;4.60;;;1.80;;
55224;SDS011;41091;49.400;8.684;2022-10-17T15:37:51;7.03;;;2.25;;
55224;SDS011;41091;49.400;8.684;2022-10-17T15:40:20;5.93;;;1.88;;
55224;SDS011;41091;49.400;8.684;2022-10-17T15:42:46;7.93;;;1.98;;
55224;SDS011;41091;49.400;8.684;2022-10-17T15:45:14;7.85;;;2.03;;
55224;SDS011;41091;49.400;8.684;2022-10-17T15:47:41;8.18;;;1.95;;
55224;SDS011;41091;49.400;8.684;2022-10-17T15:50:11;8.27;;;2.22;;
55224;SDS011;41091;49.400;8.684;2022-10-17T15:52:40;7.35;;;1.77;;
55224;SDS011;41091;49.400;8.684;2022-10-17T15:55:10;4.18;;;1.60;;
55224;SDS011;41091;49.400;8.684;2022-10-17T15:57:37;5.78;;;1.60;;
55224;SDS011;41091;49.400;8.684;2022-10-17T16:00:07;7.40;;;2.08;;
55224;SDS011;41091;49.400;8.684;2022-10-17T16:02:39;9.32;;;1.83;;
55224;SDS011;41091;49.400;8.684;2022-10-17T16:05:10;12.98;;;1.80;;
55224;SDS011;41091;49.400;8.684;2022-10-17T16:07:40;5.88;;;2.08;;
55224;SDS011;41091;49.400;8.684;2022-10-17T16:10:06;3.67;;;1.90;;
55224;SDS011;41091;49.400;8.684;2022-10-17T16:12:36;11.52;;;2.10;;
55224;SDS011;41091;49.400;8.684;2022-10-17T16:15:06;6.32;;;1.85;;
55224;SDS011;41091;49.400;8.684;2022-10-17T16:17:33;2.80;;;2.05;;
55224;SDS011;41091;49.400;8.684;2022-10-17T16:19:58;4.63;;;1.95;;
55224;SDS011;41091;49.400;8.684;2022-10-17T16:22:25;10.60;;;2.00;;
55224;SDS011;41091;49.400;8.684;2022-10-17T16:24:55;7.35;;;2.00;;
55224;SDS011;41091;49.400;8.684;2022-10-17T16:27:23;8.82;;;1.70;;
55224;SDS011;41091;49.400;8.684;2022-10-17T16:29:48;7.78;;;2.40;;
55224;SDS011;41091;49.400;8.684;2022-10-17T16:32:13;7.25;;;2.50;;
55224;SDS011;41091;49.400;8.684;2022-10-17T16:34:39;4.95;;;2.60;;
55224;SDS011;41091;49.400;8.684;2022-10-17T16:37:04;5.95;;;2.25;;
55224;SDS011;41091;49.400;8.684;2022-10-17T16:39:32;2.85;;;2.67;;
55224;SDS011;41091;49.400;8.684;2022-10-17T16:42:00;6.32;;;2.78;;
55224;SDS011;41091;49.400;8.684;2022-10-17T16:44:27;9.40;;;2.58;;
55224;SDS011;41091;49.400;8.684;2022-10-17T16:46:53;13.10;;;3.13;;
55224;SDS011;41091;49.400;8.684;2022-10-17T16:49:23;17.90;;;2.92;;
55224;SDS011;41091;49.400;8.684;2022-10-17T16:51:48;10.32;;;5.13;;
55224;SDS011;41091;49.400;8.684;2022-10-17T16:54:16;7.97;;;3.30;;
55224;SDS011;41091;49.400;8.684;2022-10-17T16:56:41;5.75;;;2.72;;
55224;SDS011;41091;49.400;8.684;2022-10-17T16:59:09;7.28;;;3.08;;
55224;SDS011;41091;49.400;8.684;2022-10-17T17:01:38;13.25;;;3.25;;
55224;SDS011;41091;49.400;8.684;2022-10-17T17:04:03;7.93;;;2.90;;
55224;SDS011;41091;49.400;8.684;2022-10-17T17:06:29;11.63;;;2.63;;
55224;SDS011;41091;49.400;8.684;2022-10-17T17:08:57;15.38;;;2.38;;
55224;SDS011;41091;49.400;8.684;2022-10-17T17:11:25;12.38;;;2.67;;
55224;SDS011;41091;49.400;8.684;2022-10-17T17:13:54;3.92;;;2.55;;
55224;SDS011;41091;49.400;8.684;2022-10-17T17:16:21;6.50;;;3.67;;
55224;SDS011;41091;49.400;8.684;2022-10-17T17:19:00;15.77;;;3.47;;
55224;SDS011;41091;49.400;8.684;2022-10-17T17:21:28;7.35;;;3.00;;